Regulus — ZGAS3 — position and weather

sailwx.info

Track history (hours):
 
Tides and Currents Weather Stations Pressure Air Temp Water Temp Dewpoint Dewpoint Depression Visibility Wind Speed Wind Dir Waves Ship Positions

Regulus

Last reported at 2016-Jun-28 20:03 UTC. Time now 2016-Jun-29 12:54 UTC.
Position N 45°31' E 013°34'.

Length 40 m; draft 2.7 m.

Type: Pleasure craft. MMSI: 319474000.

Date/timePositionNaut miles runAvg speedWind from/ knotsBaromVisibWave heightAir tempDewpointWater temp
2016-Jun-28 20:03N 45°31' E 013°34'0 0.0
2016-Jun-28 19:12N 45°31' E 013°34'  
2016-Jun-25 17:31N 45°31' E 013°34'0 0.0
2016-Jun-25 13:21N 45°31' E 013°34'1 0.9
2016-Jun-25 12:33N 45°31' E 013°33'10 3.4
2016-Jun-25 09:31N 45°23' E 013°24'13 6.2
2016-Jun-25 07:23N 45°10' E 013°21'7 8.9
2016-Jun-25 06:33N 45°03' E 013°23'9 8.5
2016-Jun-25 05:33N 44°55' E 013°27'8 8.4
2016-Jun-25 04:33N 44°48' E 013°34'8 8.3
2016-Jun-25 03:33N 44°41' E 013°41'8 8.2
2016-Jun-25 02:33N 44°34' E 013°47'8 8.5
2016-Jun-25 01:33N 44°28' E 013°54'232 8.0
2016-Jun-23 20:29N 42°24' E 018°25'6 5.7
2016-Jun-23 19:27N 42°26' E 018°33'5 6.1
2016-Jun-23 18:33N 42°26' E 018°40'1 0.9
2016-Jun-23 17:31N 42°26' E 018°41'0 0.0
2016-Jun-23 16:31N 42°26' E 018°41'0 0.0
2016-Jun-23 15:31N 42°26' E 018°41'0 0.1
2016-Jun-23 14:33N 42°26' E 018°41'0 0.3
2016-Jun-23 13:33N 42°26' E 018°41'0 0.0
2016-Jun-23 12:33N 42°26' E 018°41'0 0.0
2016-Jun-23 11:33N 42°26' E 018°41'0 0.0
2016-Jun-23 10:33N 42°26' E 018°41'0 0.0
2016-Jun-23 09:33N 42°26' E 018°41'0 0.0
2016-Jun-23 08:33N 42°26' E 018°41'0 0.0
2016-Jun-23 07:33N 42°26' E 018°41'0 0.0
2016-Jun-23 05:33N 42°26' E 018°41'0 0.0
2016-Jun-23 04:33N 42°26' E 018°41'0 0.0
2016-Jun-23 03:33N 42°26' E 018°41'0 0.0
2016-Jun-23 02:33N 42°26' E 018°41'0 0.0
2016-Jun-23 01:33N 42°26' E 018°41'0 0.0
2016-Jun-23 00:33N 42°26' E 018°41'0 0.0
2016-Jun-22 23:33N 42°26' E 018°41'0 0.0
2016-Jun-22 22:33N 42°26' E 018°41'0 0.1
2016-Jun-22 21:33N 42°26' E 018°41'0 0.0
2016-Jun-22 20:33N 42°26' E 018°41'0 0.0
2016-Jun-22 19:33N 42°26' E 018°41'0 0.0
2016-Jun-22 18:33N 42°26' E 018°41'0 0.0
2016-Jun-22 17:33N 42°26' E 018°41'1 0.5
2016-Jun-22 16:33N 42°26' E 018°41'2 2.0
2016-Jun-22 15:33N 42°25' E 018°38'0 0.0
2016-Jun-22 14:31N 42°25' E 018°38'0 0.0
2016-Jun-22 13:31N 42°25' E 018°38'0 0.0
2016-Jun-22 12:31N 42°25' E 018°38'0 0.0
2016-Jun-22 11:31N 42°25' E 018°38'0 0.0
2016-Jun-22 10:25N 42°25' E 018°38'0 0.0
2016-Jun-22 09:31N 42°25' E 018°38'0 0.0
2016-Jun-22 08:31N 42°25' E 018°38'0 0.0
2016-Jun-22 07:31N 42°25' E 018°38'0 0.0
2016-Jun-22 06:31N 42°25' E 018°38'0 0.0
2016-Jun-22 05:31N 42°25' E 018°38'0 0.0
2016-Jun-22 04:31N 42°25' E 018°38'0 0.0
2016-Jun-22 03:31N 42°25' E 018°38'0 0.0
2016-Jun-22 02:22N 42°25' E 018°38'0 0.0
2016-Jun-22 01:19N 42°25' E 018°38'0 0.0
2016-Jun-22 00:31N 42°25' E 018°38'0 0.0
2016-Jun-21 23:31N 42°25' E 018°38'0 0.0
2016-Jun-21 22:31N 42°25' E 018°38'0 0.0
2016-Jun-21 21:31N 42°25' E 018°38'0 0.0
2016-Jun-21 20:31N 42°25' E 018°38'0 0.0
2016-Jun-21 19:28N 42°25' E 018°38'0 0.0
2016-Jun-21 18:31N 42°25' E 018°38'0 0.0
2016-Jun-21 17:31N 42°25' E 018°38'0 0.0
2016-Jun-21 16:31N 42°25' E 018°38'0 0.0
2016-Jun-21 15:31N 42°25' E 018°38'0 0.0
2016-Jun-21 14:31N 42°25' E 018°38'0 0.0
2016-Jun-21 13:33N 42°25' E 018°38'1 1.1
2016-Jun-21 12:33N 42°25' E 018°39'2 1.5
2016-Jun-21 11:33N 42°26' E 018°41'0 0.0
2016-Jun-21 10:33N 42°26' E 018°41'0 0.0
2016-Jun-21 09:33N 42°26' E 018°41'0 0.0
2016-Jun-21 08:33N 42°26' E 018°41'0 0.0
2016-Jun-21 07:33N 42°26' E 018°41'0 0.0
2016-Jun-21 05:33N 42°26' E 018°41'0 0.0
2016-Jun-21 04:33N 42°26' E 018°41'0 0.0
2016-Jun-21 03:33N 42°26' E 018°41'0 0.0
2016-Jun-21 02:33N 42°26' E 018°41'0 0.0
2016-Jun-21 01:33N 42°26' E 018°41'0 0.0
2016-Jun-21 00:33N 42°26' E 018°41'0 0.0
2016-Jun-20 23:33N 42°26' E 018°41'0 0.0
2016-Jun-20 22:33N 42°26' E 018°41'0 0.0
2016-Jun-20 21:33N 42°26' E 018°41'0 0.0
2016-Jun-20 20:33N 42°26' E 018°41'0 0.0
2016-Jun-20 19:33N 42°26' E 018°41'0 0.0
2016-Jun-20 18:33N 42°26' E 018°41'0 0.0
2016-Jun-20 17:33N 42°26' E 018°41'0 0.0
2016-Jun-20 16:33N 42°26' E 018°41'0 0.0
2016-Jun-20 15:33N 42°26' E 018°41'0 0.0
2016-Jun-20 14:33N 42°26' E 018°41'0 0.0
2016-Jun-20 13:33N 42°26' E 018°41'0 0.0
2016-Jun-20 12:33N 42°26' E 018°41'0 0.0
2016-Jun-20 11:33N 42°26' E 018°41'0 0.0
2016-Jun-20 10:33N 42°26' E 018°41'0 0.0
2016-Jun-20 09:33N 42°26' E 018°41'0 0.0
2016-Jun-20 08:33N 42°26' E 018°41'0 0.0
2016-Jun-20 07:33N 42°26' E 018°41'0 0.0
2016-Jun-20 06:33N 42°26' E 018°41'0 0.0
2016-Jun-20 05:33N 42°26' E 018°41'0 0.0
2016-Jun-20 04:33N 42°26' E 018°41'0 0.0
2016-Jun-20 03:33N 42°26' E 018°41'0 0.0
2016-Jun-20 02:33N 42°26' E 018°41'0 0.0
2016-Jun-20 01:33N 42°26' E 018°41'0 0.0
2016-Jun-20 00:33N 42°26' E 018°41'0 0.0
2016-Jun-19 23:33N 42°26' E 018°41'0 0.0
2016-Jun-19 22:33N 42°26' E 018°41'0 0.0
2016-Jun-19 21:33N 42°26' E 018°41'0 0.0
2016-Jun-19 20:33N 42°26' E 018°41'0 0.0
2016-Jun-19 19:33N 42°26' E 018°41'0 0.0
2016-Jun-19 18:33N 42°26' E 018°41'0 0.0
2016-Jun-19 17:33N 42°26' E 018°41'0 0.0
2016-Jun-19 16:33N 42°26' E 018°41'0 0.0
2016-Jun-19 15:33N 42°26' E 018°41'0 0.0
2016-Jun-19 14:33N 42°26' E 018°41'0 0.0
2016-Jun-19 13:33N 42°26' E 018°41'0 0.0
2016-Jun-19 12:33N 42°26' E 018°41'0 0.0
2016-Jun-19 11:33N 42°26' E 018°41'0 0.0
2016-Jun-19 10:33N 42°26' E 018°41'0 0.0
2016-Jun-19 09:33N 42°26' E 018°41'0 0.0
2016-Jun-19 08:33N 42°26' E 018°41'0 0.0
2016-Jun-19 07:33N 42°26' E 018°41'0 0.0
2016-Jun-19 06:33N 42°26' E 018°41'0 0.0
2016-Jun-19 05:34N 42°26' E 018°41'0 0.0
2016-Jun-19 04:34N 42°26' E 018°41'0 0.0
2016-Jun-19 03:33N 42°26' E 018°41'0 0.0
2016-Jun-19 02:33N 42°26' E 018°41'0 0.0
2016-Jun-19 01:34N 42°26' E 018°41'0 0.0
2016-Jun-19 00:33N 42°26' E 018°41'0 0.0
2016-Jun-18 23:33N 42°26' E 018°41'0 0.0
2016-Jun-18 22:34N 42°26' E 018°41'0 0.0
2016-Jun-18 21:33N 42°26' E 018°41'0 0.0
2016-Jun-18 20:33N 42°26' E 018°41'  
Track history (hours):
 
Tides and Currents Weather Stations Pressure Air Temp Water Temp Dewpoint Dewpoint Depression Visibility Wind Speed Wind Dir Waves Ship Positions

Regulus

Last reported at 2016-Jun-28 20:03 UTC. Time now 2016-Jun-29 12:54 UTC.
Position N 45°31' E 013°34'.

Length 40 m; draft 2.7 m.

Type: Pleasure craft. MMSI: 319474000.

Date/timePositionNaut miles runAvg speedWind from/ knotsBaromVisibWave heightAir tempDewpointWater temp
2016-Jun-28 20:03N 45°31' E 013°34'0 0.0
2016-Jun-28 19:12N 45°31' E 013°34'  
2016-Jun-25 17:31N 45°31' E 013°34'0 0.0
2016-Jun-25 13:21N 45°31' E 013°34'1 0.9
2016-Jun-25 12:33N 45°31' E 013°33'10 3.4
2016-Jun-25 09:31N 45°23' E 013°24'13 6.2
2016-Jun-25 07:23N 45°10' E 013°21'7 8.9
2016-Jun-25 06:33N 45°03' E 013°23'9 8.5
2016-Jun-25 05:33N 44°55' E 013°27'8 8.4
2016-Jun-25 04:33N 44°48' E 013°34'8 8.3
2016-Jun-25 03:33N 44°41' E 013°41'8 8.2
2016-Jun-25 02:33N 44°34' E 013°47'8 8.5
2016-Jun-25 01:33N 44°28' E 013°54'232 8.0
2016-Jun-23 20:29N 42°24' E 018°25'6 5.7
2016-Jun-23 19:27N 42°26' E 018°33'5 6.1
2016-Jun-23 18:33N 42°26' E 018°40'1 0.9
2016-Jun-23 17:31N 42°26' E 018°41'0 0.0
2016-Jun-23 16:31N 42°26' E 018°41'0 0.0
2016-Jun-23 15:31N 42°26' E 018°41'0 0.1
2016-Jun-23 14:33N 42°26' E 018°41'0 0.3
2016-Jun-23 13:33N 42°26' E 018°41'0 0.0
2016-Jun-23 12:33N 42°26' E 018°41'0 0.0
2016-Jun-23 11:33N 42°26' E 018°41'0 0.0
2016-Jun-23 10:33N 42°26' E 018°41'0 0.0
2016-Jun-23 09:33N 42°26' E 018°41'0 0.0
2016-Jun-23 08:33N 42°26' E 018°41'0 0.0
2016-Jun-23 07:33N 42°26' E 018°41'0 0.0
2016-Jun-23 05:33N 42°26' E 018°41'0 0.0
2016-Jun-23 04:33N 42°26' E 018°41'0 0.0
2016-Jun-23 03:33N 42°26' E 018°41'0 0.0
2016-Jun-23 02:33N 42°26' E 018°41'0 0.0
2016-Jun-23 01:33N 42°26' E 018°41'0 0.0
2016-Jun-23 00:33N 42°26' E 018°41'0 0.0
2016-Jun-22 23:33N 42°26' E 018°41'0 0.0
2016-Jun-22 22:33N 42°26' E 018°41'0 0.1
2016-Jun-22 21:33N 42°26' E 018°41'0 0.0
2016-Jun-22 20:33N 42°26' E 018°41'0 0.0
2016-Jun-22 19:33N 42°26' E 018°41'0 0.0
2016-Jun-22 18:33N 42°26' E 018°41'0 0.0
2016-Jun-22 17:33N 42°26' E 018°41'1 0.5
2016-Jun-22 16:33N 42°26' E 018°41'2 2.0
2016-Jun-22 15:33N 42°25' E 018°38'0 0.0
2016-Jun-22 14:31N 42°25' E 018°38'0 0.0
2016-Jun-22 13:31N 42°25' E 018°38'0 0.0
2016-Jun-22 12:31N 42°25' E 018°38'0 0.0
2016-Jun-22 11:31N 42°25' E 018°38'0 0.0
2016-Jun-22 10:25N 42°25' E 018°38'0 0.0
2016-Jun-22 09:31N 42°25' E 018°38'0 0.0
2016-Jun-22 08:31N 42°25' E 018°38'0 0.0
2016-Jun-22 07:31N 42°25' E 018°38'0 0.0
2016-Jun-22 06:31N 42°25' E 018°38'0 0.0
2016-Jun-22 05:31N 42°25' E 018°38'0 0.0
2016-Jun-22 04:31N 42°25' E 018°38'0 0.0
2016-Jun-22 03:31N 42°25' E 018°38'0 0.0
2016-Jun-22 02:22N 42°25' E 018°38'0 0.0
2016-Jun-22 01:19N 42°25' E 018°38'0 0.0
2016-Jun-22 00:31N 42°25' E 018°38'0 0.0
2016-Jun-21 23:31N 42°25' E 018°38'0 0.0
2016-Jun-21 22:31N 42°25' E 018°38'0 0.0
2016-Jun-21 21:31N 42°25' E 018°38'0 0.0
2016-Jun-21 20:31N 42°25' E 018°38'0 0.0
2016-Jun-21 19:28N 42°25' E 018°38'0 0.0
2016-Jun-21 18:31N 42°25' E 018°38'0 0.0
2016-Jun-21 17:31N 42°25' E 018°38'0 0.0
2016-Jun-21 16:31N 42°25' E 018°38'0 0.0
2016-Jun-21 15:31N 42°25' E 018°38'0 0.0
2016-Jun-21 14:31N 42°25' E 018°38'0 0.0
2016-Jun-21 13:33N 42°25' E 018°38'1 1.1
2016-Jun-21 12:33N 42°25' E 018°39'2 1.5
2016-Jun-21 11:33N 42°26' E 018°41'0 0.0
2016-Jun-21 10:33N 42°26' E 018°41'0 0.0
2016-Jun-21 09:33N 42°26' E 018°41'0 0.0
2016-Jun-21 08:33N 42°26' E 018°41'0 0.0
2016-Jun-21 07:33N 42°26' E 018°41'0 0.0
2016-Jun-21 05:33N 42°26' E 018°41'0 0.0
2016-Jun-21 04:33N 42°26' E 018°41'0 0.0
2016-Jun-21 03:33N 42°26' E 018°41'0 0.0
2016-Jun-21 02:33N 42°26' E 018°41'0 0.0
2016-Jun-21 01:33N 42°26' E 018°41'0 0.0
2016-Jun-21 00:33N 42°26' E 018°41'0 0.0
2016-Jun-20 23:33N 42°26' E 018°41'0 0.0
2016-Jun-20 22:33N 42°26' E 018°41'0 0.0
2016-Jun-20 21:33N 42°26' E 018°41'0 0.0
2016-Jun-20 20:33N 42°26' E 018°41'0 0.0
2016-Jun-20 19:33N 42°26' E 018°41'0 0.0
2016-Jun-20 18:33N 42°26' E 018°41'0 0.0
2016-Jun-20 17:33N 42°26' E 018°41'0 0.0
2016-Jun-20 16:33N 42°26' E 018°41'0 0.0
2016-Jun-20 15:33N 42°26' E 018°41'0 0.0
2016-Jun-20 14:33N 42°26' E 018°41'0 0.0
2016-Jun-20 13:33N 42°26' E 018°41'0 0.0
2016-Jun-20 12:33N 42°26' E 018°41'0 0.0
2016-Jun-20 11:33N 42°26' E 018°41'0 0.0
2016-Jun-20 10:33N 42°26' E 018°41'0 0.0
2016-Jun-20 09:33N 42°26' E 018°41'0 0.0
2016-Jun-20 08:33N 42°26' E 018°41'0 0.0
2016-Jun-20 07:33N 42°26' E 018°41'0 0.0
2016-Jun-20 06:33N 42°26' E 018°41'0 0.0
2016-Jun-20 05:33N 42°26' E 018°41'0 0.0
2016-Jun-20 04:33N 42°26' E 018°41'0 0.0
2016-Jun-20 03:33N 42°26' E 018°41'0 0.0
2016-Jun-20 02:33N 42°26' E 018°41'0 0.0
2016-Jun-20 01:33N 42°26' E 018°41'0 0.0
2016-Jun-20 00:33N 42°26' E 018°41'0 0.0
2016-Jun-19 23:33N 42°26' E 018°41'0 0.0
2016-Jun-19 22:33N 42°26' E 018°41'0 0.0
2016-Jun-19 21:33N 42°26' E 018°41'0 0.0
2016-Jun-19 20:33N 42°26' E 018°41'0 0.0
2016-Jun-19 19:33N 42°26' E 018°41'0 0.0
2016-Jun-19 18:33N 42°26' E 018°41'0 0.0
2016-Jun-19 17:33N 42°26' E 018°41'0 0.0
2016-Jun-19 16:33N 42°26' E 018°41'0 0.0
2016-Jun-19 15:33N 42°26' E 018°41'0 0.0
2016-Jun-19 14:33N 42°26' E 018°41'0 0.0
2016-Jun-19 13:33N 42°26' E 018°41'0 0.0
2016-Jun-19 12:33N 42°26' E 018°41'0 0.0
2016-Jun-19 11:33N 42°26' E 018°41'0 0.0
2016-Jun-19 10:33N 42°26' E 018°41'0 0.0
2016-Jun-19 09:33N 42°26' E 018°41'0 0.0
2016-Jun-19 08:33N 42°26' E 018°41'0 0.0
2016-Jun-19 07:33N 42°26' E 018°41'0 0.0
2016-Jun-19 06:33N 42°26' E 018°41'0 0.0
2016-Jun-19 05:34N 42°26' E 018°41'0 0.0
2016-Jun-19 04:34N 42°26' E 018°41'0 0.0
2016-Jun-19 03:33N 42°26' E 018°41'0 0.0
2016-Jun-19 02:33N 42°26' E 018°41'0 0.0
2016-Jun-19 01:34N 42°26' E 018°41'0 0.0
2016-Jun-19 00:33N 42°26' E 018°41'0 0.0
2016-Jun-18 23:33N 42°26' E 018°41'0 0.0
2016-Jun-18 22:34N 42°26' E 018°41'0 0.0
2016-Jun-18 21:33N 42°26' E 018°41'0 0.0
2016-Jun-18 20:33N 42°26' E 018°41'  

Dump ship's entire track history